Nixon, NV

1:57 PM PST on December 17, 2014 (GMT -0800)
Palomino Valley (Off Pyramid Highway) | Change Station
CLOSE
Current Station
Personal Weather Station
Location: Reno, NV
Elevation: 4410 ft
Nearby Weather Stations

Elev 4410 ft 39.83 °N, 119.64 °W | Updated 2 minutes ago

Partly Cloudy
Partly Cloudy
45.1 °F
Feels Like 43 °F
N
4.0
Wind Variable Wind from West
Gusts 8.0 mph

Today
High -- | Low -- °F
--% Chance of Precip.
Yesterday
High -- | Low -- °F
Precip. -- in
7:13 AM 4:34 PM
Waning Crescent, 19% visible
Pressure 29.92 in
Visibility 10.0 miles
Clouds Mostly Cloudy 5500 ft
Overcast 6500 ft
Windchill 43 °F
Dew Point 30 °F
Humidity 54%
Rainfall 0.00 in
Snow Depth Not available.
UV 1 out of 12
Pollen .30 out of 12
Air Quality Not available.
Flu Activity Not available.
METAR KRTS 172135Z AUTO 26016KT 10SM BKN055 OVC065 07/M02 A2992 RMK AO2

More Conditions Fewer Conditions

Pressure 29.92 in
Visibility 10.0 miles
Clouds Mostly Cloudy 5500 ft
Overcast 6500 ft
Windchill 43 °F
Dew Point 30 °F
Humidity 54%
Rainfall 0.00 in
Snow Depth Not available.
UV 1 out of 12
Pollen .30 out of 12
Air Quality Not available.
Flu Activity Not available.
METAR KRTS 172135Z AUTO 26016KT 10SM BKN055 OVC065 07/M02 A2992 RMK AO2

More Conditions Fewer Conditions

10-Day Weather Forecast

Almanac

Astronomy

Dec. 17, 2014 Rise Set
Actual Time
Civil Twilight
Nautical Twilight
Astronomical Twilight
Moon
Length of Visible Light
Length of Day
Tomorrow will be .
, % of the Moon is Illuminated

Today's Extremes

State Highs State Lows

Community

WunderPhotos

Upload Photos

1,778,807 photos uploaded!

WunderBlogs® & News

Nearby

Air Quality

  Air Quality AQ Index Pollutant
Not available.

Snow Depth

Station Depth Elevation

Earthquake Activity

City Distance Mag. Time & Date
Minimum magnitude displayed is 2.5.

Coastal Water Temperatures

Place Temperature

Nearby Weather Stations